Time;durP1;ratioP1;P1;durP2;ratioP2;P2;SDS_P1;SDS_P2;PMS_P1;PMS_P2;Temp;Humidity;BMP_temperature;BMP_pressure;BME280_temperature;BME280_humidity;BME280_pressure;Samples;Min_cycle;Max_cycle;Signal;HPM_P1;HPM_P2
2022/10/10 00:00:47;;;;;;;;;;;13.80;99.90;;;;;;5053978;28;19905;-76
2022/10/10 00:03:12;;;;;;;;;;;13.80;99.90;;;;;;5053916;28;19909;-79
2022/10/10 00:05:38;;;;;;;;;;;13.80;99.90;;;;;;5054263;28;20384;-77
2022/10/10 00:08:04;;;;;;;;;;;13.80;99.90;;;;;;5053822;28;20000;-76
2022/10/10 00:10:30;;;;;;;;;;;13.70;99.90;;;;;;5035989;28;19936;-79
2022/10/10 00:12:55;;;;;;;;;;;13.60;99.90;;;;;;5053620;28;19915;-78
2022/10/10 00:15:22;;;;;;;;;;;13.50;99.90;;;;;;5053833;28;19937;-78
2022/10/10 00:17:47;;;;;;;;;;;13.50;99.90;;;;;;5054383;28;19950;-76
2022/10/10 00:20:14;;;;;;;;;;;13.50;99.90;;;;;;5053801;28;19904;-76
2022/10/10 00:22:39;;;;;;;;;;;13.50;99.90;;;;;;5054009;28;19951;-78
2022/10/10 00:25:06;;;;;;;;;;;13.60;99.90;;;;;;5053686;28;19913;-78
2022/10/10 00:27:32;;;;;;;;;;;13.70;99.90;;;;;;5053215;28;19912;-78
2022/10/10 00:29:57;;;;;;;;;;;13.80;99.90;;;;;;5035533;28;19954;-77
2022/10/10 00:32:23;;;;;;;;;;;13.80;99.90;;;;;;5053761;28;20277;-77
2022/10/10 00:34:48;;;;;;;;;;;13.80;99.90;;;;;;5035755;28;19904;-76
2022/10/10 00:37:14;;;;;;;11.30;4.60;;;13.70;99.90;;;;;;5053261;28;20366;-79
2022/10/10 00:39:39;;;;;;;8.93;4.85;;;13.90;99.90;;;;;;5053144;28;20017;-80
2022/10/10 00:42:05;;;;;;;13.68;5.25;;;14.10;99.90;;;;;;5053118;28;20196;-77
2022/10/10 00:44:31;;;;;;;14.85;5.70;;;14.20;99.90;;;;;;5053131;28;20424;-80
2022/10/10 00:46:56;;;;;;;;;;;14.30;99.90;;;;;;5053654;28;20075;-78
2022/10/10 00:49:25;;;;;;;;;;;14.40;99.90;;;;;;5053518;28;19913;-79
2022/10/10 00:51:56;;;;;;;11.00;3.88;;;14.50;99.90;;;;;;5053423;28;19909;-77
2022/10/10 00:54:22;;;;;;;;;;;14.40;99.90;;;;;;5053754;28;20116;-79
2022/10/10 00:57:08;;;;;;;;;;;14.20;99.90;;;;;;5054011;28;19991;-78
2022/10/10 00:59:35;;;;;;;;;;;14.10;99.90;;;;;;5052922;28;19904;-79
2022/10/10 01:02:01;;;;;;;;;;;14.10;99.90;;;;;;5053440;28;19904;-77
2022/10/10 01:04:29;;;;;;;;;;;14.10;99.90;;;;;;5053636;28;20265;-76
2022/10/10 01:06:55;;;;;;;;;;;14.00;99.90;;;;;;5053545;28;19912;-80
2022/10/10 01:09:20;;;;;;;;;;;14.00;99.90;;;;;;5053610;28;19905;-77
2022/10/10 01:11:51;;;;;;;;;;;14.00;99.90;;;;;;5053305;28;19911;-78
2022/10/10 01:14:16;;;;;;;;;;;14.10;99.90;;;;;;5053578;28;19905;-77
2022/10/10 01:16:50;;;;;;;;;;;14.20;99.90;;;;;;5053217;28;20449;-78
2022/10/10 01:19:18;;;;;;;;;;;14.20;99.90;;;;;;5053756;28;20339;-77
2022/10/10 01:21:54;;;;;;;;;;;14.40;99.90;;;;;;5053495;28;19905;-78
2022/10/10 01:24:40;;;;;;;;;;;14.40;99.90;;;;;;5055500;28;19904;-77
2022/10/10 01:27:06;;;;;;;;;;;14.40;99.90;;;;;;5031190;28;19923;-76
2022/10/10 01:29:37;;;;;;;;;;;14.40;99.90;;;;;;5056845;28;19909;-75
2022/10/10 01:32:06;;;;;;;;;;;14.40;99.90;;;;;;5056840;28;20020;-79
2022/10/10 01:34:38;;;;;;;;;;;14.30;99.90;;;;;;5057100;28;19947;-77
2022/10/10 01:37:06;;;;;;;;;;;14.30;99.90;;;;;;5056608;28;19905;-77
2022/10/10 01:39:50;;;;;;;;;;;14.30;99.90;;;;;;5056595;28;19908;-78
2022/10/10 01:42:22;;;;;;;;;;;14.30;99.90;;;;;;5056904;28;19909;-77
2022/10/10 01:44:51;;;;;;;;;;;14.30;99.90;;;;;;5056826;28;19927;-76
2022/10/10 01:47:16;;;;;;;;;;;14.30;99.90;;;;;;5057026;28;19919;-78
2022/10/10 01:49:43;;;;;;;;;;;14.10;99.90;;;;;;5056446;28;20354;-77
2022/10/10 01:52:28;;;;;;;;;;;14.10;99.90;;;;;;5056997;28;19904;-77
2022/10/10 01:55:03;;;;;;;;;;;13.90;99.90;;;;;;5056646;28;19936;-78
2022/10/10 01:57:31;;;;;;;;;;;13.90;99.90;;;;;;5038440;28;19904;-78
2022/10/10 02:00:14;;;;;;;;;;;14.10;99.90;;;;;;5056742;28;20345;-78
2022/10/10 02:02:55;;;;;;;;;;;14.30;99.90;;;;;;5038333;28;19954;-77
2022/10/10 02:05:24;;;;;;;;;;;14.30;99.90;;;;;;5056421;28;19905;-76
2022/10/10 02:07:55;;;;;;;;;;;14.40;99.90;;;;;;5056053;28;19909;-77
2022/10/10 02:10:22;;;;;;;;;;;14.40;99.90;;;;;;5056315;28;19905;-79
2022/10/10 02:12:48;;;;;;;;;;;14.30;99.90;;;;;;5038142;28;20396;-77
2022/10/10 02:15:15;;;;;;;;;;;14.30;99.90;;;;;;5056627;28;20327;-76
2022/10/10 02:17:42;;;;;;;;;;;14.30;99.90;;;;;;5056019;28;19912;-78
2022/10/10 02:20:10;;;;;;;;;;;14.40;99.90;;;;;;5056177;28;19954;-76
2022/10/10 02:22:37;;;;;;;;;;;14.40;99.90;;;;;;5055903;28;19908;-80
2022/10/10 02:25:03;;;;;;;;;;;14.40;99.90;;;;;;5056058;28;20070;-80
2022/10/10 02:27:40;;;;;;;;;;;14.50;99.90;;;;;;5057370;28;19919;-77
2022/10/10 02:30:06;;;;;;;;;;;14.50;99.90;;;;;;5061212;28;19939;-75
2022/10/10 02:32:35;;;;;;;;;;;14.30;99.90;;;;;;5061242;28;19944;-76
2022/10/10 02:35:04;;;;;;;;;;;14.40;99.90;;;;;;5056755;28;19911;-80
2022/10/10 02:37:30;;;;;;;;;;;14.30;99.90;;;;;;5055816;28;20319;-76
2022/10/10 02:39:58;;;;;;;;;;;14.40;99.90;;;;;;5055773;28;19908;-77
2022/10/10 02:42:25;;;;;;;;;;;14.40;99.90;;;;;;5056076;28;19904;-76
2022/10/10 02:44:51;;;;;;;;;;;14.50;99.90;;;;;;5055690;28;20376;-78
2022/10/10 02:47:16;;;;;;;;;;;14.40;99.90;;;;;;5055603;28;19919;-80
2022/10/10 02:49:42;;;;;;;;;;;14.30;99.90;;;;;;5055337;28;19911;-79
2022/10/10 02:52:08;;;;;;;;;;;14.30;99.90;;;;;;5055831;28;19954;-77
2022/10/10 02:54:33;;;;;;;;;;;14.20;99.90;;;;;;5055501;28;19936;-78
2022/10/10 02:56:59;;;;;;;;;;;14.30;99.90;;;;;;5055272;28;19912;-78
2022/10/10 02:59:24;;;;;;;;;;;14.30;99.90;;;;;;5055721;28;20357;-80
2022/10/10 03:01:50;;;;;;;;;;;14.40;99.90;;;;;;5055165;28;19947;-77
2022/10/10 03:04:15;;;;;;;;;;;14.30;99.90;;;;;;5055321;28;20364;-76
2022/10/10 03:06:41;;;;;;;;;;;14.40;99.90;;;;;;5055071;28;19905;-77
2022/10/10 03:09:06;;;;;;;;;;;14.30;99.90;;;;;;5055446;28;19915;-77
2022/10/10 03:11:32;;;;;;;;;;;14.10;99.90;;;;;;5055017;28;19911;-78
2022/10/10 03:13:57;;;;;;;;;;;14.10;99.90;;;;;;5054876;28;19908;-77
2022/10/10 03:16:23;;;;;;;;;;;14.20;99.90;;;;;;5054878;28;19905;-77
2022/10/10 03:18:48;;;;;;;;;;;14.20;99.90;;;;;;5055112;28;19927;-77
2022/10/10 03:21:14;;;;;;;;;;;14.10;99.90;;;;;;5054612;28;19905;-78
2022/10/10 03:23:40;;;;;;;;;;;14.00;99.90;;;;;;5054632;28;19905;-77
2022/10/10 03:26:05;;;;;;;;;;;13.90;99.90;;;;;;5054539;28;19955;-77
2022/10/10 03:28:31;;;;;;;;;;;13.90;99.90;;;;;;5054294;28;19919;-78
2022/10/10 03:30:56;;;;;;;;;;;14.00;99.90;;;;;;5054589;28;19905;-78
2022/10/10 03:33:22;;;;;;;;;;;14.00;99.90;;;;;;5054535;28;19905;-81
2022/10/10 03:35:48;;;;;;;;;;;14.00;99.90;;;;;;5054694;28;20420;-78
2022/10/10 03:38:13;;;;;;;;;;;13.90;99.90;;;;;;5036400;28;20377;-77
2022/10/10 03:40:40;;;;;;;;;;;13.90;99.90;;;;;;5054663;28;19909;-78
2022/10/10 03:43:06;;;;;;;11.88;5.75;;;14.00;99.90;;;;;;5053949;28;19948;-76
2022/10/10 03:45:32;;;;;;;10.10;5.22;;;14.10;99.90;;;;;;5053770;28;20021;-78
2022/10/10 03:47:57;;;;;;;;;;;14.10;99.90;;;;;;5054193;28;20015;-77
2022/10/10 03:50:23;;;;;;;;;;;14.10;99.90;;;;;;5036319;28;19951;-78
2022/10/10 03:52:48;;;;;;;;;;;14.10;99.90;;;;;;5054415;28;19904;-79
2022/10/10 03:55:14;;;;;;;;;;;14.10;99.90;;;;;;5054217;28;19905;-78
2022/10/10 03:57:39;;;;;;;;;;;14.00;99.90;;;;;;5054601;28;19905;-80
2022/10/10 04:00:05;;;;;;;;;;;14.10;99.90;;;;;;5054074;28;20292;-78
2022/10/10 04:02:31;;;;;;;;;;;14.10;99.90;;;;;;5054098;28;20297;-81
2022/10/10 04:04:56;;;;;;;;;;;14.10;99.90;;;;;;5054016;28;19936;-78
2022/10/10 04:07:22;;;;;;;;;;;14.10;99.90;;;;;;5053863;28;19909;-77
2022/10/10 04:09:47;;;;;;;;;;;14.10;99.90;;;;;;5054184;28;20390;-78
2022/10/10 04:12:13;;;;;;;;;;;14.10;99.90;;;;;;5053888;28;19905;-77
2022/10/10 04:14:38;;;;;;;;;;;14.10;99.90;;;;;;5054134;28;19908;-79
2022/10/10 04:17:04;;;;;;;;;;;14.10;99.90;;;;;;5053822;28;19911;-79
2022/10/10 04:19:29;;;;;;;14.40;6.93;;;14.10;99.90;;;;;;5053563;28;19905;-78
2022/10/10 04:21:55;;;;;;;13.40;8.18;;;14.20;99.90;;;;;;5053357;28;20025;-79
2022/10/10 04:24:21;;;;;;;16.05;7.95;;;14.30;99.90;;;;;;5053426;28;20036;-78
2022/10/10 04:26:46;;;;;;;;;;;14.30;99.90;;;;;;5053954;28;20440;-79
2022/10/10 04:29:12;;;;;;;;;;;14.30;99.90;;;;;;5053209;28;19948;-78
2022/10/10 04:31:37;;;;;;;;;;;14.30;99.90;;;;;;5053943;28;20000;-76
2022/10/10 04:34:03;;;;;;;;;;;14.40;99.90;;;;;;5053692;28;20390;-78
2022/10/10 04:36:28;;;;;;;;;;;14.30;99.90;;;;;;5053626;28;19904;-76
2022/10/10 04:38:54;;;;;;;;;;;14.40;99.90;;;;;;5053943;28;19905;-78
2022/10/10 04:41:19;;;;;;;;;;;14.40;99.90;;;;;;5053584;28;20284;-78
2022/10/10 04:43:45;;;;;;;15.57;8.23;;;14.40;99.90;;;;;;5035392;28;20258;-78
2022/10/10 04:46:10;;;;;;;;;;;14.50;99.90;;;;;;5053701;28;20040;-78
2022/10/10 04:48:36;;;;;;;;;;;14.60;99.90;;;;;;5053758;28;19916;-77
2022/10/10 04:51:02;;;;;;;;;;;14.60;99.90;;;;;;5053528;28;19905;-79
2022/10/10 04:53:27;;;;;;;15.45;7.00;;;14.50;99.90;;;;;;5053680;28;19905;-80
2022/10/10 04:55:53;;;;;;;;;;;14.50;99.90;;;;;;5053302;28;20029;-77
2022/10/10 04:58:18;;;;;;;;;;;14.50;99.90;;;;;;5054698;28;20004;-78
2022/10/10 05:00:44;;;;;;;;;;;14.50;99.90;;;;;;5057365;28;20373;-78
2022/10/10 05:03:11;;;;;;;;;;;14.60;99.90;;;;;;5057733;28;19909;-78
2022/10/10 05:05:37;;;;;;;;;;;14.60;99.90;;;;;;5057592;28;19909;-79
2022/10/10 05:08:03;;;;;;;;;;;14.50;99.90;;;;;;5057708;28;19912;-77
2022/10/10 05:10:29;;;;;;;;;;;14.50;99.90;;;;;;5057267;28;19959;-78
2022/10/10 05:12:54;;;;;;;;;;;14.40;99.90;;;;;;5057162;28;19991;-79
2022/10/10 05:15:21;;;;;;;;;;;14.50;99.90;;;;;;5057180;28;19957;-77
2022/10/10 05:17:47;;;;;;;;;;;14.60;99.90;;;;;;5057345;28;19950;-79
2022/10/10 05:20:12;;;;;;;;;;;14.60;99.90;;;;;;5057032;28;19909;-76
2022/10/10 05:22:38;;;;;;;;;;;14.60;99.90;;;;;;5057319;28;19904;-77
2022/10/10 05:25:04;;;;;;;23.20;8.82;;;14.70;99.90;;;;;;5056960;28;19912;-77
2022/10/10 05:27:29;;;;;;;;;;;14.70;99.90;;;;;;5056503;28;20072;-76
2022/10/10 05:29:55;;;;;;;;;;;14.70;99.90;;;;;;5057470;28;19915;-77
2022/10/10 05:32:21;;;;;;;;;;;14.70;99.90;;;;;;5057030;28;19909;-79
2022/10/10 05:34:46;;;;;;;;;;;14.70;99.90;;;;;;5038880;28;20377;-77
2022/10/10 05:37:12;;;;;;;;;;;14.70;99.90;;;;;;5057354;28;20285;-77
2022/10/10 05:39:37;;;;;;;;;;;14.60;99.90;;;;;;5056753;28;19909;-78
2022/10/10 05:42:03;;;;;;;;;;;14.70;99.90;;;;;;5056684;28;20365;-77
2022/10/10 05:44:29;;;;;;;;;;;14.70;99.90;;;;;;5056835;28;20384;-78
2022/10/10 05:46:54;;;;;;;;;;;14.70;99.90;;;;;;5056585;28;20000;-78
2022/10/10 05:49:20;;;;;;;;;;;14.70;99.90;;;;;;5056771;28;19916;-78
2022/10/10 05:51:46;;;;;;;;;;;14.80;99.90;;;;;;5056528;28;19912;-79
2022/10/10 05:54:11;;;;;;;;;;;14.70;99.90;;;;;;5056362;28;19998;-78
2022/10/10 05:56:37;;;;;;;;;;;14.70;99.90;;;;;;5056713;28;20408;-80
2022/10/10 05:59:03;;;;;;;21.60;8.65;;;14.70;99.90;;;;;;5056060;28;19909;-77
2022/10/10 06:01:29;;;;;;;24.63;9.23;;;14.70;99.90;;;;;;5056041;28;20497;-76
2022/10/10 06:03:54;;;;;;;19.67;8.60;;;14.60;99.90;;;;;;5037969;28;20032;-76
2022/10/10 06:06:23;;;;;;;;;;;14.60;99.90;;;;;;5056786;28;20032;-79
2022/10/10 06:08:49;;;;;;;;;;;14.60;99.90;;;;;;5056084;28;19920;-80
2022/10/10 06:11:18;;;;;;;17.67;8.73;;;14.70;99.90;;;;;;5054616;28;19992;-78
2022/10/10 06:13:46;;;;;;;22.50;8.57;;;14.60;99.90;;;;;;5056216;28;20037;-78
2022/10/10 06:16:11;;;;;;;;;;;14.50;99.90;;;;;;5056041;28;20108;-78
2022/10/10 06:18:37;;;;;;;;;;;14.50;99.90;;;;;;5055966;28;19958;-78
2022/10/10 06:21:04;;;;;;;;;;;14.50;99.90;;;;;;5055885;28;19908;-78
2022/10/10 06:23:29;;;;;;;;;;;14.50;99.90;;;;;;5055867;28;20284;-79
2022/10/10 06:25:55;;;;;;;;;;;14.60;99.90;;;;;;5055873;28;19916;-75
2022/10/10 06:28:21;;;;;;;;;;;14.60;99.90;;;;;;5055543;28;19939;-77
2022/10/10 06:30:48;;;;;;;;;;;14.60;99.90;;;;;;5037884;28;19995;-78
2022/10/10 06:33:14;;;;;;;;;;;14.70;99.90;;;;;;5055703;28;20285;-77
2022/10/10 06:35:43;;;;;;;;;;;14.70;99.90;;;;;;5055615;28;19909;-79
2022/10/10 06:38:09;;;;;;;;;;;14.60;99.90;;;;;;5055637;28;19912;-78
2022/10/10 06:40:35;;;;;;;21.67;8.20;;;14.70;99.90;;;;;;5037345;28;20292;-81
2022/10/10 06:43:02;;;;;;;20.63;8.68;;;14.70;99.90;;;;;;5055059;28;20033;-78
2022/10/10 06:45:27;;;;;;;17.58;9.07;;;14.60;99.90;;;;;;5055092;28;20020;-77
2022/10/10 06:47:53;;;;;;;22.35;8.90;;;14.60;99.90;;;;;;5055213;28;20036;-77
2022/10/10 06:50:19;;;;;;;26.33;8.73;;;14.60;99.90;;;;;;5063183;28;20103;-74
2022/10/10 06:52:45;;;;;;;27.05;9.30;;;14.70;99.90;;;;;;5074646;28;20059;-75
2022/10/10 06:55:10;;;;;;;24.30;9.63;;;14.80;99.90;;;;;;5075382;28;20017;-74
2022/10/10 06:57:36;;;;;;;24.08;9.15;;;14.90;99.90;;;;;;5074812;28;20028;-74
2022/10/10 07:00:04;;;;;;;19.48;8.35;;;14.90;99.90;;;;;;5074201;28;20025;-75
2022/10/10 07:02:30;;;;;;;24.27;9.18;;;14.90;99.90;;;;;;5074771;28;20031;-75
2022/10/10 07:04:55;;;;;;;18.73;8.23;;;14.90;99.90;;;;;;5075617;28;20033;-76
2022/10/10 07:07:21;;;;;;;16.92;8.43;;;15.00;99.90;;;;;;5075034;28;20040;-76
2022/10/10 07:09:47;;;;;;;20.40;9.38;;;15.00;99.90;;;;;;5080611;28;20392;-76
2022/10/10 07:12:12;;;;;;;23.67;9.30;;;15.10;99.90;;;;;;5065326;28;20024;-76
2022/10/10 07:14:38;;;;;;;17.83;9.90;;;15.20;99.90;;;;;;5080243;28;20012;-75
2022/10/10 07:17:03;;;;;;;20.25;9.63;;;15.20;99.90;;;;;;5087683;28;20425;-76
2022/10/10 07:19:29;;;;;;;30.13;9.90;;;15.20;99.90;;;;;;5074515;28;20017;-75
2022/10/10 07:21:55;;;;;;;25.00;9.85;;;15.30;99.90;;;;;;5074794;28;20078;-76
2022/10/10 07:24:20;;;;;;;25.92;10.32;;;15.40;99.90;;;;;;5074458;28;20477;-76
2022/10/10 07:26:46;;;;;;;27.63;10.38;;;15.50;99.90;;;;;;5075136;28;20103;-76
2022/10/10 07:29:12;;;;;;;28.25;11.27;;;15.60;99.90;;;;;;5074238;28;20094;-78
2022/10/10 07:31:37;;;;;;;24.05;9.70;;;15.70;99.90;;;;;;5056392;28;20058;-77
2022/10/10 07:34:05;;;;;;;23.85;9.25;;;15.80;99.90;;;;;;5073668;28;20409;-75
2022/10/10 07:36:30;;;;;;;28.85;9.43;;;15.90;99.90;;;;;;5056143;28;20396;-75
2022/10/10 07:38:56;;;;;;;23.30;8.43;;;16.00;99.90;;;;;;5073730;28;20028;-78
2022/10/10 07:41:21;;;;;;;20.80;9.00;;;16.00;99.90;;;;;;5075554;28;20036;-76
2022/10/10 07:43:52;;;;;;;18.38;8.88;;;15.90;99.90;;;;;;5072465;28;20055;-76
2022/10/10 07:46:19;;;;;;;25.02;9.88;;;16.00;99.90;;;;;;5074105;28;20036;-79
2022/10/10 07:48:44;;;;;;;27.25;9.15;;;16.00;99.90;;;;;;5073916;28;20024;-75
2022/10/10 07:51:11;;;;;;;26.73;10.52;;;16.10;99.90;;;;;;5072284;28;20500;-76
2022/10/10 07:53:37;;;;;;;30.48;10.07;;;16.20;99.90;;;;;;5073941;28;20029;-77
2022/10/10 07:56:05;;;;;;;26.92;9.63;;;16.40;99.90;;;;;;5073574;28;20032;-77
2022/10/10 07:58:31;;;;;;;29.55;9.25;;;16.80;99.90;;;;;;5073217;28;20389;-79
2022/10/10 08:01:07;;;;;;;24.20;9.73;;;17.00;99.90;;;;;;5073940;28;20028;-76
2022/10/10 08:03:32;;;;;;;;;;;17.10;99.90;;;;;;5072473;28;19908;-76
2022/10/10 08:06:01;;;;;;;;;;;17.10;99.90;;;;;;5073174;28;19970;-78
2022/10/10 08:08:26;;;;;;;;;;;17.10;99.90;;;;;;5073977;28;19912;-76
2022/10/10 08:10:52;;;;;;;;;;;17.00;99.90;;;;;;5074212;28;20348;-77
2022/10/10 08:13:17;;;;;;;;;;;17.00;99.90;;;;;;5074167;28;20375;-79
2022/10/10 08:15:43;;;;;;;;;;;16.90;99.90;;;;;;5073883;28;20407;-78
2022/10/10 08:18:08;;;;;;;;;;;16.90;99.90;;;;;;5078700;28;19909;-77
2022/10/10 08:20:34;;;;;;;;;;;16.90;99.90;;;;;;5071279;28;19908;-77
2022/10/10 08:22:59;;;;;;;;;;;17.00;99.90;;;;;;5073404;28;20342;-76
2022/10/10 08:25:25;;;;;;;;;;;16.90;99.90;;;;;;5056799;28;19908;-78
2022/10/10 08:27:50;;;;;;;;;;;16.90;99.90;;;;;;5058864;28;19917;-79
2022/10/10 08:30:16;;;;;;;;;;;16.90;99.90;;;;;;5074034;28;19912;-78
2022/10/10 08:32:42;;;;;;;;;;;16.90;99.90;;;;;;5086075;28;19991;-81
2022/10/10 08:35:07;;;;;;;;;;;16.80;99.90;;;;;;5075823;28;19939;-76
2022/10/10 08:37:33;;;;;;;;;;;16.80;99.90;;;;;;5092312;28;19946;-78
2022/10/10 08:39:58;;;;;;;;;;;16.80;99.90;;;;;;5066290;28;20281;-79
2022/10/10 08:42:30;;;;;;;;;;;16.80;99.90;;;;;;5073748;28;19904;-76
2022/10/10 08:45:00;;;;;;;;;;;16.80;99.90;;;;;;5073585;28;19908;-78
2022/10/10 08:47:45;;;;;;;;;;;16.90;99.90;;;;;;5073923;28;19919;-77
2022/10/10 08:50:20;;;;;;;;;;;16.90;99.90;;;;;;5073124;28;20360;-76
2022/10/10 08:52:50;;;;;;;;;;;16.90;99.90;;;;;;5053857;28;19958;-75
2022/10/10 08:55:21;;;;;;;;;;;17.00;99.90;;;;;;5073411;28;19904;-77
2022/10/10 08:57:52;;;;;;;;;;;17.00;99.90;;;;;;5073547;28;20386;-76
2022/10/10 09:00:20;;;;;;;;;;;17.00;99.90;;;;;;5073609;28;19905;-77
2022/10/10 09:02:50;;;;;;;;;;;17.00;99.90;;;;;;5073437;28;19908;-78
2022/10/10 09:05:23;;;;;;;;;;;17.00;99.90;;;;;;5072688;28;19916;-79
2022/10/10 09:07:52;;;;;;;;;;;17.10;99.90;;;;;;5072509;28;19970;-75
2022/10/10 09:10:23;;;;;;;;;;;17.10;99.90;;;;;;5053667;28;19911;-77
2022/10/10 09:12:51;;;;;;;;;;;17.20;99.90;;;;;;5071743;28;19904;-79
2022/10/10 09:15:21;;;;;;;;;;;17.10;99.90;;;;;;5071101;28;20295;-77
2022/10/10 09:17:58;;;;;;;;;;;17.10;99.90;;;;;;5052821;28;19966;-78
2022/10/10 09:20:35;;;;;;;;;;;17.20;99.90;;;;;;5071765;28;19904;-78
2022/10/10 09:23:03;;;;;;;;;;;17.20;99.90;;;;;;5072094;28;20402;-78
2022/10/10 09:25:32;;;;;;;;;;;17.20;99.90;;;;;;5075492;28;19943;-78
2022/10/10 09:28:11;;;;;;;;;;;17.20;99.90;;;;;;5072550;28;19995;-78
2022/10/10 09:30:40;;;;;;;;;;;17.20;99.90;;;;;;5073635;28;19992;-78
2022/10/10 09:33:09;;;;;;;;;;;17.20;99.90;;;;;;5072587;28;20377;-79
2022/10/10 09:35:37;;;;;;;;;;;17.20;99.90;;;;;;5074966;28;19909;-80
2022/10/10 09:38:17;;;;;;;;;;;17.30;99.90;;;;;;5073433;28;19950;-79
2022/10/10 09:40:45;;;;;;;;;;;17.30;99.90;;;;;;5054420;28;19938;-79
2022/10/10 09:43:15;;;;;;;;;;;17.40;99.90;;;;;;5054469;28;19963;-79
2022/10/10 09:45:45;;;;;;;;;;;17.40;99.90;;;;;;5072118;28;19909;-78
2022/10/10 09:48:10;;;;;;;;;;;17.40;99.90;;;;;;5057109;28;19912;-79
2022/10/10 09:50:37;;;;;;;;;;;17.40;99.90;;;;;;5076591;28;19915;-77
2022/10/10 09:53:03;;;;;;;;;;;17.40;99.90;;;;;;5076848;28;20280;-77
2022/10/10 09:55:38;;;;;;;;;;;17.40;99.90;;;;;;5075812;28;19908;-78
2022/10/10 09:58:10;;;;;;;;;;;17.40;99.90;;;;;;5076472;28;20364;-76
2022/10/10 10:00:36;;;;;;;;;;;17.40;99.90;;;;;;5075402;28;19920;-80
2022/10/10 10:03:22;;;;;;;;;;;17.40;99.90;;;;;;5074671;28;19908;-78
2022/10/10 10:05:54;;;;;;;;;;;17.50;99.90;;;;;;5074973;28;19908;-80
2022/10/10 10:08:37;;;;;;;;;;;17.50;99.90;;;;;;5076561;28;19908;-79
2022/10/10 10:11:03;;;;;;;;;;;17.60;99.90;;;;;;5076256;28;19912;-78
2022/10/10 10:13:33;;;;;;;;;;;17.80;99.90;;;;;;5077025;28;19909;-79
2022/10/10 10:15:59;;;;;;;;;;;17.90;99.90;;;;;;5075923;28;19908;-78
2022/10/10 10:18:26;;;;;;;;;;;18.10;99.90;;;;;;5075678;28;19954;-79
2022/10/10 10:20:53;;;;;;;;;;;18.10;99.90;;;;;;5074475;28;19956;-81
2022/10/10 10:23:29;;;;;;;;;;;18.10;99.90;;;;;;5075996;28;20348;-77
2022/10/10 10:26:12;;;;;;;;;;;18.20;99.90;;;;;;5075754;28;19908;-78
2022/10/10 10:28:39;;;;;;;;;;;18.10;99.90;;;;;;5067654;28;20377;-77
2022/10/10 10:31:05;;;;;;;;;;;18.10;99.90;;;;;;5079782;28;19908;-79
2022/10/10 10:33:39;;;;;;;;;;;18.10;99.90;;;;;;5076215;28;19958;-79
2022/10/10 10:36:22;;;;;;;;;;;18.10;99.90;;;;;;5057858;28;19911;-80
2022/10/10 10:38:51;;;;;;;;;;;18.20;99.90;;;;;;5057311;28;20306;-80
2022/10/10 10:41:22;;;;;;;;;;;18.10;99.90;;;;;;5056763;28;20368;-80
2022/10/10 10:43:55;;;;;;;;;;;18.20;99.90;;;;;;5075276;28;19951;-79
2022/10/10 10:46:38;;;;;;;;;;;18.20;99.90;;;;;;5075867;28;19905;-80
2022/10/10 10:49:13;;;;;;;;;;;18.20;99.90;;;;;;5075429;28;20003;-80
2022/10/10 10:52:02;;;;;;;;;;;18.30;99.90;;;;;;5074700;28;19940;-80
2022/10/10 10:54:46;;;;;;;;;;;18.30;99.90;;;;;;5035454;28;19943;-80
2022/10/10 10:57:17;;;;;;;;;;;18.40;99.90;;;;;;5054892;28;19909;-79
2022/10/10 10:59:54;;;;;;;;;;;18.40;99.90;;;;;;5073538;28;19905;-80
2022/10/10 11:02:25;;;;;;;;;;;18.40;99.90;;;;;;5073575;28;19904;-80
2022/10/10 11:05:03;;;;;;;;;;;18.40;99.90;;;;;;5073701;28;19904;-80
2022/10/10 11:07:33;;;;;;;;;;;18.30;99.90;;;;;;5074454;28;20374;-79
2022/10/10 11:10:09;;;;;;;;;;;18.30;99.90;;;;;;5075001;28;19970;-80
2022/10/10 11:12:50;;;;;;;;;;;18.30;99.90;;;;;;5075534;28;19904;-80
2022/10/10 11:15:16;;;;;;;;;;;18.40;99.90;;;;;;5056926;28;19990;-79
2022/10/10 11:17:41;;;;;;;;;;;18.50;99.90;;;;;;5056879;28;20442;-80
2022/10/10 11:20:22;;;;;;;;;;;18.50;99.90;;;;;;5074799;28;19904;-80
2022/10/10 11:22:49;;;;;;;;;;;18.40;99.90;;;;;;5075025;28;19904;-80
2022/10/10 11:25:15;;;;;;;;;;;18.30;99.90;;;;;;5074732;28;19904;-79
2022/10/10 11:28:07;;;;;;;;;;;18.10;99.90;;;;;;5056357;28;19916;-80
2022/10/10 11:30:35;;;;;;;;;;;18.00;99.90;;;;;;5043842;28;19908;-80
2022/10/10 11:33:00;;;;;;;;;;;17.90;99.90;;;;;;5074594;28;20326;-80
2022/10/10 11:35:32;;;;;;;;;;;17.90;99.90;;;;;;5074531;28;19909;-80
2022/10/10 11:38:09;;;;;;;;;;;17.90;99.90;;;;;;5075117;28;19987;-80
2022/10/10 11:40:45;;;;;;;;;;;17.90;99.90;;;;;;5074466;28;19905;-80
2022/10/10 11:43:14;;;;;;;;;;;18.00;99.90;;;;;;5074909;28;19939;-80
2022/10/10 11:45:44;;;;;;;;;;;18.10;99.90;;;;;;5074615;28;19911;-79
2022/10/10 11:48:12;;;;;;;;;;;18.10;99.90;;;;;;5073981;28;19908;-80
2022/10/10 11:50:41;;;;;;;;;;;18.10;99.90;;;;;;5074829;28;19911;-80
2022/10/10 11:53:14;;;;;;;;;;;18.30;99.90;;;;;;5074168;28;19911;-80
2022/10/10 11:55:39;;;;;;;;;;;18.40;99.90;;;;;;5074841;28;19954;-79
2022/10/10 11:58:05;;;;;;;;;;;18.40;99.90;;;;;;5074253;28;19904;-80
2022/10/10 12:00:36;;;;;;;;;;;18.50;99.90;;;;;;5074198;28;20273;-80
2022/10/10 12:03:02;;;;;;;;;;;18.50;99.90;;;;;;5055727;28;20372;-79
2022/10/10 12:05:28;;;;;;;;;;;18.60;99.90;;;;;;5073236;28;19939;-79
2022/10/10 12:07:57;;;;;;;;;;;18.50;99.90;;;;;;5072978;28;19908;-79
2022/10/10 12:10:25;;;;;;;;;;;18.60;99.90;;;;;;5074350;28;19908;-78
2022/10/10 12:12:53;;;;;;;;;;;18.70;99.90;;;;;;5074096;28;19943;-77
2022/10/10 12:15:27;;;;;;;;;;;18.70;99.90;;;;;;5074597;28;19954;-80
2022/10/10 12:17:53;;;;;;;;;;;18.80;99.90;;;;;;5073460;28;20433;-76
2022/10/10 12:20:19;;;;;;;;;;;18.80;99.90;;;;;;5074044;28;19998;-77
2022/10/10 12:22:45;;;;;;;;;;;18.70;99.90;;;;;;5072599;28;19958;-78
2022/10/10 12:25:22;;;;;;;;;;;18.70;99.90;;;;;;5055248;28;19912;-78
2022/10/10 12:28:05;;;;;;;;;;;18.50;99.90;;;;;;5075978;28;20475;-76
2022/10/10 12:30:30;;;;;;;;;;;18.30;99.90;;;;;;5073429;28;19911;-78
2022/10/10 12:32:56;;;;;;;;;;;18.10;99.90;;;;;;5054423;28;19912;-78
2022/10/10 12:35:36;;;;;;;;;;;17.90;99.90;;;;;;5073809;28;19910;-76
2022/10/10 12:38:04;;;;;;;;;;;17.90;99.90;;;;;;5074627;28;20264;-78
2022/10/10 12:40:31;;;;;;;;;;;17.80;99.90;;;;;;5074090;28;20398;-79
2022/10/10 12:42:56;;;;;;;;;;;17.80;99.90;;;;;;5055298;28;20299;-78
2022/10/10 12:45:28;;;;;;;;;;;17.80;99.90;;;;;;5073652;28;19905;-79
2022/10/10 12:47:54;;;;;;;;;;;17.80;99.90;;;;;;5055096;28;19913;-77
2022/10/10 12:50:21;;;;;;;;;;;17.80;99.90;;;;;;5074038;28;19912;-77
2022/10/10 12:52:50;;;;;;;;;;;17.80;99.90;;;;;;5055873;28;20335;-78
2022/10/10 12:55:23;;;;;;;;;;;17.70;99.90;;;;;;5056597;28;19915;-77
2022/10/10 12:57:50;;;;;;;;;;;17.70;99.90;;;;;;5063773;28;19953;-77
2022/10/10 13:00:17;;;;;;;;;;;17.80;99.90;;;;;;5093990;28;19919;-78
2022/10/10 13:02:49;;;;;;;;;;;17.80;99.90;;;;;;5092063;28;19904;-78
2022/10/10 13:05:16;;;;;;;;;;;17.80;99.90;;;;;;5072801;28;19951;-79
2022/10/10 13:07:42;;;;;;;;;;;17.80;99.90;;;;;;5073483;28;20003;-79
2022/10/10 13:10:18;;;;;;;;;;;17.80;99.90;;;;;;5073488;28;19936;-79
2022/10/10 13:12:44;;;;;;;;;;;17.80;99.90;;;;;;5072726;28;20369;-83
2022/10/10 13:15:18;;;;;;;;;;;17.80;99.90;;;;;;5074050;28;19911;-78
2022/10/10 13:17:44;;;;;;;;;;;17.90;99.90;;;;;;5072872;28;19939;-80
2022/10/10 13:20:26;;;;;;;;;;;17.90;99.90;;;;;;5075960;28;19911;-76
2022/10/10 13:22:52;;;;;;;;;;;17.90;99.90;;;;;;5084910;28;19904;-81
2022/10/10 13:25:17;;;;;;;;;;;17.90;99.90;;;;;;5097592;28;19904;-80
2022/10/10 13:27:43;;;;;;;;;;;17.90;99.90;;;;;;5096882;28;19916;-79
2022/10/10 13:30:20;;;;;;;;;;;17.90;99.90;;;;;;5097852;28;20271;-79
2022/10/10 13:32:45;;;;;;;;;;;17.80;99.90;;;;;;5079172;28;19911;-77
2022/10/10 13:35:15;;;;;;;;;;;17.80;99.90;;;;;;5097381;28;20267;-78
2022/10/10 13:37:41;;;;;;;;;;;17.80;99.90;;;;;;5096543;28;19904;-77
2022/10/10 13:40:17;;;;;;;;;;;17.80;99.90;;;;;;5097103;28;20378;-78
2022/10/10 13:42:43;;;;;;;;;;;17.70;99.90;;;;;;5078891;28;20321;-77
2022/10/10 13:45:31;;;;;;;;;;;17.70;99.90;;;;;;5097798;28;19932;-78
2022/10/10 13:48:00;;;;;;;;;;;17.70;99.90;;;;;;5086136;28;19912;-76
2022/10/10 13:50:30;;;;;;;;;;;17.70;99.90;;;;;;5078781;28;19904;-78
2022/10/10 13:53:14;;;;;;;;;;;17.70;99.90;;;;;;5086796;28;20075;-78
2022/10/10 13:55:40;;;;;;;;;;;17.70;99.90;;;;;;5075700;28;20311;-78
2022/10/10 13:58:07;;;;;;;;;;;17.70;99.90;;;;;;5081261;28;19915;-79
2022/10/10 14:00:33;;;;;;;;;;;17.70;99.90;;;;;;5078386;28;19909;-78
2022/10/10 14:02:59;;;;;;;;;;;17.70;99.90;;;;;;5074264;28;19914;-78
2022/10/10 14:05:29;;;;;;;;;;;17.80;99.90;;;;;;5076268;28;19908;-79